Time;durP1;ratioP1;P1;durP2;ratioP2;P2;SDS_P1;SDS_P2;PMS_P1;PMS_P2;Temp;Humidity;BMP_temperature;BMP_pressure;BME280_temperature;BME280_humidity;BME280_pressure;Samples;Min_cycle;Max_cycle;Signal;HPM_P1;HPM_P2
2023/03/11 00:02:02;;;;;;;18.40;9.60;;;;;;;10.26;58.51;98746.06;124453;1099;102804;-72
2023/03/11 00:04:33;;;;;;;17.07;8.73;;;;;;;10.29;57.73;98752.22;124521;1099;104326;-72
2023/03/11 00:07:08;;;;;;;17.20;8.40;;;;;;;10.31;58.08;98753.97;124492;1099;104302;-71
2023/03/11 00:09:40;;;;;;;17.07;8.77;;;;;;;10.32;58.18;98749.63;124521;1099;104195;-71
2023/03/11 00:12:11;;;;;;;18.67;9.57;;;;;;;10.32;58.41;98749.63;124963;1099;105700;-72
2023/03/11 00:14:42;;;;;;;18.30;9.20;;;;;;;10.33;58.79;98752.30;124536;1099;104254;-72
2023/03/11 00:17:14;;;;;;;18.13;8.93;;;;;;;10.36;58.53;98749.70;124520;1099;102510;-72
2023/03/11 00:19:45;;;;;;;18.43;9.80;;;;;;;10.41;58.37;98742.73;124487;1099;104338;-72
2023/03/11 00:22:16;;;;;;;20.23;9.60;;;;;;;10.45;58.63;98733.14;125116;1099;104230;-72
2023/03/11 00:24:47;;;;;;;19.20;9.40;;;;;;;10.49;58.52;98720.95;124101;1099;104230;-72
2023/03/11 00:27:19;;;;;;;18.80;9.50;;;;;;;10.52;59.24;98718.36;124696;1098;104191;-72
2023/03/11 00:29:50;;;;;;;18.30;8.80;;;;;;;10.52;59.21;98715.73;124522;1099;101883;-72
2023/03/11 00:32:21;;;;;;;19.03;9.87;;;;;;;10.50;59.01;98707.85;124474;1099;102582;-72
2023/03/11 00:34:52;;;;;;;19.80;10.07;;;;;;;10.43;60.65;98704.28;124514;1099;104274;-72
2023/03/11 00:37:24;;;;;;;20.30;9.80;;;;;;;10.39;60.03;98694.66;124534;1099;104242;-72
2023/03/11 00:39:55;;;;;;;19.13;9.57;;;;;;;10.38;59.89;98697.27;124107;1099;104220;-72
2023/03/11 00:42:26;;;;;;;19.37;9.07;;;;;;;10.35;60.49;98692.00;124644;1098;104219;-72
2023/03/11 00:44:58;;;;;;;17.33;9.50;;;;;;;10.33;60.79;98688.47;124482;1099;104239;-72
2023/03/11 00:47:29;;;;;;;18.80;9.60;;;;;;;10.31;60.69;98688.42;124513;1099;104239;-72
2023/03/11 00:50:00;;;;;;;18.27;9.20;;;;;;;10.31;60.38;98685.80;124548;1099;104178;-72
2023/03/11 00:52:32;;;;;;;19.37;9.33;;;;;;;10.32;60.62;98677.08;125434;1099;104220;-73
2023/03/11 00:55:03;;;;;;;18.87;8.77;;;;;;;10.29;61.33;98677.06;124581;1099;104194;-72
2023/03/11 00:57:35;;;;;;;20.57;9.57;;;;;;;10.29;61.79;98673.57;124106;1102;104300;-72
2023/03/11 01:00:10;;;;;;;18.43;9.70;;;;;;;10.27;61.66;98663.08;124623;1099;104207;-72
2023/03/11 01:02:41;;;;;;;22.97;10.47;;;;;;;10.25;61.68;98656.92;124499;1099;104195;-71
2023/03/11 01:05:14;;;;;;;18.93;9.47;;;;;;;10.24;63.27;98663.05;124537;1099;104353;-71
2023/03/11 01:07:45;;;;;;;19.23;9.53;;;;;;;10.22;63.00;98676.14;124086;1102;102523;-71
2023/03/11 01:10:16;;;;;;;20.27;9.50;;;;;;;10.21;63.20;98649.92;124156;1099;104179;-71
2023/03/11 01:12:48;;;;;;;18.47;9.40;;;;;;;10.18;64.03;98621.06;124230;1099;104341;-72
2023/03/11 01:15:23;;;;;;;22.33;10.50;;;;;;;10.13;63.80;98604.41;124070;1099;104348;-71
2023/03/11 01:17:54;;;;;;;19.10;9.50;;;;;;;10.01;68.30;98582.50;124129;1099;104189;-71
2023/03/11 01:20:26;;;;;;;17.80;8.87;;;;;;;9.88;68.58;98557.09;124107;1099;102125;-71
2023/03/11 01:22:57;;;;;;;21.53;10.27;;;;;;;9.82;66.47;98591.10;124513;1099;104399;-71
2023/03/11 01:25:28;;;;;;;25.53;11.20;;;;;;;9.78;65.80;98605.89;124531;1099;104242;-71
2023/03/11 01:28:02;;;;;;;21.93;10.65;;;;;;;9.76;66.19;98596.29;124518;1099;104329;-71
2023/03/11 01:30:35;;;;;;;21.50;10.33;;;;;;;9.73;67.53;98598.88;124134;1099;104333;-71
2023/03/11 01:33:07;;;;;;;19.83;9.63;;;;;;;9.65;68.10;98589.20;124552;1099;104214;-71
2023/03/11 01:35:41;;;;;;;21.53;11.40;;;;;;;9.61;66.69;98590.03;124119;1099;104303;-72
2023/03/11 01:38:12;;;;;;;22.40;11.50;;;;;;;9.60;67.37;98595.25;124558;1099;104270;-71
2023/03/11 01:40:47;;;;;;;22.47;12.20;;;;;;;9.60;67.21;98579.55;124497;1099;102342;-72
2023/03/11 01:43:41;;;;;;;20.83;9.67;;;;;;;9.60;70.02;98546.40;124484;1099;104267;-72
2023/03/11 01:46:20;;;;;;;21.33;11.30;;;;;;;9.55;69.72;98532.37;124180;1099;104184;-71
2023/03/11 01:48:52;;;;;;;20.92;11.28;;;;;;;9.52;69.16;98545.44;124463;1099;104259;-72
2023/03/11 01:51:28;;;;;;;22.17;11.93;;;;;;;9.53;68.22;98549.81;124115;1102;103586;-71
2023/03/11 01:54:05;;;;;;;23.90;12.30;;;;;;;9.53;69.66;98552.44;124065;1099;104325;-72
2023/03/11 01:56:38;;;;;;;22.83;12.93;;;;;;;9.54;68.87;98552.45;124074;1099;104338;-72
2023/03/11 01:59:12;;;;;;;25.85;13.10;;;;;;;9.52;69.59;98543.72;124036;1100;104252;-72
2023/03/11 02:01:50;;;;;;;22.27;12.47;;;;;;;9.53;70.42;98521.02;124037;1102;104303;-71
2023/03/11 02:04:22;;;;;;;22.43;11.83;;;;;;;9.52;77.06;98493.06;124207;1099;104217;-71
2023/03/11 02:06:54;;;;;;;25.00;12.83;;;;;;;9.46;73.16;98493.05;124044;1099;104259;-71
2023/03/11 02:09:35;;;;;;;22.87;13.03;;;;;;;9.42;70.62;98486.89;124125;1099;103740;-71
2023/03/11 02:12:09;;;;;;;24.80;13.17;;;;;;;9.44;71.86;98484.29;124196;1099;101945;-71
2023/03/11 02:14:44;;;;;;;26.33;13.90;;;;;;;9.39;73.46;98484.25;124086;1099;104194;-72
2023/03/11 02:17:16;;;;;;;26.83;13.53;;;;;;;9.37;72.78;98504.31;124161;1099;104166;-72
2023/03/11 02:19:59;;;;;;;23.00;12.13;;;;;;;9.38;73.06;98508.70;124169;1099;104258;-71
2023/03/11 02:22:33;;;;;;;26.80;13.80;;;;;;;9.41;71.32;98526.15;124138;1099;104270;-71
2023/03/11 02:25:08;;;;;;;;;;;;;;;9.43;76.39;98457.24;124176;1099;104382;-71
2023/03/11 02:27:40;;;;;;;;;;;;;;;9.38;78.23;98469.43;124505;1098;102770;-72
2023/03/11 02:30:15;;;;;;;25.83;14.07;;;;;;;9.31;75.73;98431.84;124165;1099;104239;-72
2023/03/11 02:32:48;;;;;;;24.93;13.67;;;;;;;9.28;75.08;98447.52;124552;1098;104408;-72
2023/03/11 02:35:21;;;;;;;28.12;14.35;;;;;;;9.27;74.70;98437.94;124631;1099;101903;-73
2023/03/11 02:37:54;;;;;;;26.60;14.30;;;;;;;9.27;77.22;98440.55;124595;1099;104325;-73
2023/03/11 02:40:52;;;;;;;25.50;14.37;;;;;;;9.26;75.00;98432.69;124582;1099;104227;-72
2023/03/11 02:43:33;;;;;;;24.27;14.17;;;;;;;9.26;74.54;98437.92;124460;1099;104232;-72
2023/03/11 02:46:08;;;;;;;24.97;14.40;;;;;;;9.28;73.38;98441.42;124590;1099;104264;-72
2023/03/11 02:48:41;;;;;;;26.13;14.90;;;;;;;9.29;75.01;98433.58;124542;1099;104229;-72
2023/03/11 02:51:12;;;;;;;28.37;15.43;;;;;;;9.31;73.71;98437.08;124203;1099;104245;-72
2023/03/11 02:53:48;;;;;;;24.47;13.90;;;;;;;9.33;75.60;98427.52;124158;1099;104316;-72
2023/03/11 02:56:25;;;;;;;26.30;14.83;;;;;;;9.33;74.93;98424.90;124589;1099;104220;-72
2023/03/11 02:58:59;;;;;;;28.43;15.13;;;;;;;9.34;74.67;98416.16;124589;1099;103702;-72
2023/03/11 03:01:30;;;;;;;25.87;14.53;;;;;;;9.34;75.40;98413.54;124581;1099;102820;-72
2023/03/11 03:04:02;;;;;;;23.60;14.37;;;;;;;9.35;74.75;98415.30;124479;1099;104396;-72
2023/03/11 03:06:36;;;;;;;25.20;14.85;;;;;;;9.34;78.18;98403.07;124497;1099;108247;-72
2023/03/11 03:09:07;;;;;;;25.57;14.60;;;;;;;9.33;77.76;98393.49;125821;1098;104207;-72
2023/03/11 03:11:38;;;;;;;27.93;14.17;;;;;;;9.33;81.22;98396.11;124517;1099;104217;-72
2023/03/11 03:14:10;;;;;;;26.80;15.30;;;;;;;9.34;77.26;98383.88;124576;1099;102092;-72
2023/03/11 03:16:41;;;;;;;28.43;16.00;;;;;;;9.34;78.40;98376.90;124534;1099;102179;-72
2023/03/11 03:19:12;;;;;;;24.53;14.07;;;;;;;9.37;79.39;98380.42;124543;1098;104175;-71
2023/03/11 03:21:44;;;;;;;29.23;16.33;;;;;;;9.38;76.36;98384.77;124554;1099;104160;-71
2023/03/11 03:24:16;;;;;;;29.93;16.23;;;;;;;9.38;76.37;98376.92;124533;1099;102035;-72
2023/03/11 03:26:47;;;;;;;29.03;16.77;;;;;;;9.44;76.25;98371.73;124513;1099;104191;-72
2023/03/11 03:29:18;;;;;;;30.47;15.27;;;;;;;9.47;74.98;98369.13;124511;1099;104320;-72
2023/03/11 03:31:50;;;;;;;31.97;16.17;;;;;;;9.48;76.30;98369.13;124461;1099;104232;-71
2023/03/11 03:34:21;;;;;;;27.30;15.37;;;;;;;9.52;76.94;98368.30;124496;1099;104166;-72
2023/03/11 03:36:53;;;;;;;28.17;16.43;;;;;;;9.54;75.74;98371.79;124558;1099;104162;-72
2023/03/11 03:39:24;;;;;;;30.20;16.10;;;;;;;9.58;76.14;98362.20;124558;1099;103674;-72
2023/03/11 03:41:56;;;;;;;28.63;16.63;;;;;;;9.61;75.85;98362.22;124559;1099;102894;-72
2023/03/11 03:44:29;;;;;;;25.87;14.27;;;;;;;9.63;76.75;98349.13;124575;1099;104214;-72
2023/03/11 03:47:01;;;;;;;29.03;16.27;;;;;;;9.64;75.35;98351.76;124542;1099;104169;-72
2023/03/11 03:49:33;;;;;;;32.07;16.23;;;;;;;9.64;75.65;98356.13;124543;1099;104246;-72
2023/03/11 03:52:07;;;;;;;31.70;15.63;;;;;;;9.66;75.80;98350.05;124840;1099;104185;-72
2023/03/11 03:54:39;;;;;;;30.77;16.20;;;;;;;9.72;75.35;98354.41;124541;1099;104214;-72
2023/03/11 03:57:10;;;;;;;29.13;16.10;;;;;;;9.75;75.57;98350.95;124922;1099;105507;-72
2023/03/11 03:59:47;;;;;;;32.67;16.00;;;;;;;9.77;75.71;98341.34;124599;1099;104220;-71
2023/03/11 04:02:18;;;;;;;32.00;14.90;;;;;;;9.80;75.44;98341.36;124118;1099;102040;-72
2023/03/11 04:04:50;;;;;;;29.05;15.25;;;;;;;9.79;75.86;98330.02;124500;1099;104168;-72
2023/03/11 04:07:21;;;;;;;26.43;16.30;;;;;;;9.80;75.50;98333.50;124510;1099;104239;-72
2023/03/11 04:09:52;;;;;;;28.43;16.23;;;;;;;9.83;75.15;98331.79;124445;1099;104380;-71
2023/03/11 04:12:24;;;;;;;31.83;16.43;;;;;;;9.87;75.81;98324.80;124760;1099;104223;-72
2023/03/11 04:14:55;;;;;;;30.40;16.83;;;;;;;9.89;75.99;98320.44;124545;1099;101859;-72
2023/03/11 04:17:27;;;;;;;27.50;16.00;;;;;;;9.89;75.98;98320.44;124535;1099;104227;-72
2023/03/11 04:19:58;;;;;;;32.57;17.30;;;;;;;9.89;76.62;98323.95;124491;1099;104201;-72
2023/03/11 04:22:30;;;;;;;32.10;16.20;;;;;;;9.93;76.25;98306.48;125447;1099;104211;-72
2023/03/11 04:25:03;;;;;;;32.50;16.87;;;;;;;9.94;77.08;98310.88;124592;1099;104159;-72
2023/03/11 04:27:37;;;;;;;33.50;17.07;;;;;;;9.95;77.21;98303.88;124519;1099;104347;-72
2023/03/11 04:30:34;;;;;;;35.75;17.12;;;;;;;9.96;76.48;98309.12;124586;1099;104246;-72
2023/03/11 04:33:09;;;;;;;27.87;16.17;;;;;;;9.98;76.38;98303.89;124669;1099;104178;-73
2023/03/11 04:35:42;;;;;;;30.23;16.43;;;;;;;10.00;76.42;98296.89;124563;1099;104207;-73
2023/03/11 04:38:37;;;;;;;33.87;18.00;;;;;;;10.02;78.02;98279.42;124605;1099;104312;-72
2023/03/11 04:41:11;;;;;;;33.50;17.43;;;;;;;10.04;77.61;98283.80;124546;1099;104236;-72
2023/03/11 04:43:43;;;;;;;27.73;16.63;;;;;;;10.04;77.26;98282.94;124552;1099;104248;-72
2023/03/11 04:46:15;;;;;;;30.97;17.83;;;;;;;10.07;77.18;98282.95;124666;1099;104268;-73
2023/03/11 04:48:46;;;;;;;34.30;18.77;;;;;;;10.12;77.19;98282.96;124109;1099;104166;-72
2023/03/11 04:51:18;;;;;;;34.93;18.87;;;;;;;10.15;77.06;98275.97;124600;1099;104159;-72
2023/03/11 04:53:49;;;;;;;33.03;18.47;;;;;;;10.18;77.73;98273.36;124578;1098;104166;-72
2023/03/11 04:56:21;;;;;;;32.60;18.20;;;;;;;10.23;77.28;98273.36;124542;1099;104197;-72
2023/03/11 04:58:52;;;;;;;31.27;17.87;;;;;;;10.28;76.97;98273.37;124503;1099;118992;-72
2023/03/11 05:01:25;;;;;;;35.10;17.47;;;;;;;10.33;77.34;98264.68;124496;1099;104437;-72
2023/03/11 05:03:56;;;;;;;32.07;18.17;;;;;;;10.37;77.29;98271.66;124540;1098;104236;-72
2023/03/11 05:06:27;;;;;;;33.57;18.33;;;;;;;10.40;77.05;98271.66;124577;1099;104666;-72
2023/03/11 05:08:59;;;;;;;33.20;17.63;;;;;;;10.47;77.61;98266.41;124649;1099;104159;-71
2023/03/11 05:11:30;;;;;;;32.83;18.10;;;;;;;10.51;77.78;98273.42;124502;1099;104310;-71
2023/03/11 05:14:01;;;;;;;34.90;18.30;;;;;;;10.56;77.42;98282.16;124536;1099;104371;-72
2023/03/11 05:16:33;;;;;;;37.97;19.53;;;;;;;10.61;77.83;98268.17;124459;1099;101881;-73
2023/03/11 05:19:29;;;;;;;32.67;16.83;;;;;;;10.66;77.60;98262.94;124570;1099;104201;-71
2023/03/11 05:21:57;;;;;;;33.93;18.33;;;;;;;10.70;77.51;98254.17;124535;1099;102888;-72
2023/03/11 05:24:30;;;;;;;36.47;18.13;;;;;;;10.73;78.39;98248.92;124537;1099;104264;-71
2023/03/11 05:27:01;;;;;;;32.47;18.53;;;;;;;10.74;78.16;98247.19;124463;1098;103674;-72
2023/03/11 05:29:34;;;;;;;34.77;19.53;;;;;;;10.77;77.98;98240.19;124484;1099;104166;-72
2023/03/11 05:32:05;;;;;;;32.73;18.03;;;;;;;10.82;78.11;98240.17;124391;1099;104236;-72
2023/03/11 05:34:37;;;;;;;34.03;18.20;;;;;;;10.87;77.83;98234.92;124123;1099;104405;-72
2023/03/11 05:37:09;;;;;;;33.73;18.20;;;;;;;10.91;78.48;98241.92;124528;1099;104309;-72
2023/03/11 05:39:40;;;;;;;32.07;18.53;;;;;;;10.96;78.09;98238.39;124119;1099;102031;-72
2023/03/11 05:42:12;;;;;;;34.23;18.30;;;;;;;10.99;78.69;98237.52;124926;1099;104235;-71
2023/03/11 05:44:44;;;;;;;33.17;18.13;;;;;;;11.04;78.34;98237.52;124523;1099;104239;-71
2023/03/11 05:47:18;;;;;;;31.90;17.77;;;;;;;11.05;78.49;98224.39;124554;1099;104169;-72
2023/03/11 05:49:50;;;;;;;29.07;16.87;;;;;;;11.09;78.60;98219.99;124482;1099;103945;-71
2023/03/11 05:52:23;;;;;;;35.03;18.97;;;;;;;11.09;79.51;98215.61;125207;1099;104268;-72
2023/03/11 05:54:54;;;;;;;33.50;17.70;;;;;;;11.13;79.26;98209.48;124549;1099;104230;-72
2023/03/11 05:57:28;;;;;;;37.25;19.02;;;;;;;11.18;79.29;98208.61;124502;1099;103677;-72
2023/03/11 06:00:00;;;;;;;30.70;17.77;;;;;;;11.23;79.24;98210.31;124572;1099;104277;-72
2023/03/11 06:02:31;;;;;;;30.33;17.53;;;;;;;11.28;78.79;98202.42;124540;1099;104262;-72
2023/03/11 06:05:03;;;;;;;34.13;18.87;;;;;;;11.36;78.89;98208.54;124568;1099;104192;-72
2023/03/11 06:07:35;;;;;;;34.17;19.37;;;;;;;11.45;79.01;98204.98;124537;1099;104221;-73
2023/03/11 06:10:09;;;;;;;29.80;16.50;;;;;;;11.54;78.76;98209.33;124565;1099;104163;-73
2023/03/11 06:12:40;;;;;;;30.55;17.82;;;;;;;11.57;79.17;98196.18;124551;1099;103973;-73
2023/03/11 06:15:19;;;;;;;35.60;17.70;;;;;;;11.59;79.37;98195.27;124548;1099;104239;-72
2023/03/11 06:17:51;;;;;;;35.23;18.37;;;;;;;11.67;79.85;98187.34;124559;1099;104358;-73
2023/03/11 06:20:22;;;;;;;30.00;18.03;;;;;;;11.73;79.75;98178.57;124569;1099;104190;-73
2023/03/11 06:22:54;;;;;;;34.13;17.80;;;;;;;11.79;79.62;98182.02;125822;1099;104299;-72
2023/03/11 06:25:27;;;;;;;34.63;17.77;;;;;;;11.84;79.47;98180.27;124148;1099;104366;-73
2023/03/11 06:27:59;;;;;;;29.90;17.70;;;;;;;11.92;79.39;98177.61;125606;1099;104166;-72
2023/03/11 06:30:30;;;;;;;29.93;18.03;;;;;;;12.00;79.75;98180.19;124127;1099;104239;-73
2023/03/11 06:33:14;;;;;;;34.27;18.87;;;;;;;12.05;80.19;98181.02;124143;1102;103545;-76
2023/03/11 06:35:55;;;;;;;34.50;17.37;;;;;;;12.08;79.92;98180.14;124143;1099;104230;-72
2023/03/11 06:38:27;;;;;;;29.63;16.23;;;;;;;12.13;80.44;98179.20;124544;1099;102063;-73
2023/03/11 06:41:02;;;;;;;32.57;17.93;;;;;;;12.16;79.79;98176.55;124110;1099;118847;-72
2023/03/11 06:43:35;;;;;;;33.57;17.93;;;;;;;12.24;80.20;98163.34;125040;1099;104370;-72
2023/03/11 06:46:12;;;;;;;26.50;16.83;;;;;;;12.37;80.09;98177.24;124143;1099;104184;-72
2023/03/11 06:48:45;;;;;;;32.07;17.67;;;;;;;12.43;80.33;98163.18;124538;1099;104268;-74
2023/03/11 06:51:16;;;;;;;31.40;18.10;;;;;;;12.47;80.15;98168.40;124442;1099;104692;-73
2023/03/11 06:53:50;;;;;;;29.67;17.63;;;;;;;12.59;79.91;98157.76;124112;1099;104188;-72
2023/03/11 06:56:23;;;;;;;30.57;18.13;;;;;;;12.75;80.39;98154.97;124118;1099;104728;-73
2023/03/11 06:59:00;;;;;;;28.37;16.70;;;;;;;12.89;80.29;98153.05;125665;1099;104213;-73
2023/03/11 07:01:35;;;;;;;27.63;16.60;;;;;;;13.03;80.19;98154.67;124553;1099;112821;-73
2023/03/11 07:04:09;;;;;;;30.23;17.17;;;;;;;13.13;80.51;98144.02;124483;1099;104237;-73
2023/03/11 07:06:43;;;;;;;28.77;17.12;;;;;;;13.23;80.43;98143.87;124575;1099;104201;-73
2023/03/11 07:09:24;;;;;;;27.57;16.63;;;;;;;13.31;79.89;98140.25;124107;1099;104076;-73
2023/03/11 07:11:55;;;;;;;28.42;15.95;;;;;;;13.42;80.52;98126.12;124509;1099;102024;-73
2023/03/11 07:14:31;;;;;;;28.33;16.80;;;;;;;13.54;80.11;98112.77;124477;1099;104217;-73
2023/03/11 07:17:02;;;;;;;29.00;16.90;;;;;;;13.69;80.35;98118.70;124541;1099;104741;-73
2023/03/11 07:19:41;;;;;;;29.23;16.83;;;;;;;13.87;80.42;98107.88;124527;1099;102100;-73
2023/03/11 07:22:13;;;;;;;26.20;15.43;;;;;;;13.98;80.37;98095.39;124911;1099;107870;-72
2023/03/11 07:24:46;;;;;;;25.77;15.77;;;;;;;14.10;80.40;98094.32;124506;1099;104203;-73
2023/03/11 07:27:18;;;;;;;25.10;14.38;;;;;;;14.27;80.52;98093.14;125082;1099;104252;-72
2023/03/11 07:29:49;;;;;;;24.20;14.60;;;;;;;14.44;79.85;98092.84;124540;1099;104160;-72
2023/03/11 07:32:21;;;;;;;27.93;14.07;;;;;;;14.60;80.12;98088.14;124528;1099;104201;-72
2023/03/11 07:34:52;;;;;;;22.30;13.20;;;;;;;14.71;80.13;98076.52;124469;1099;104222;-72
2023/03/11 07:37:24;;;;;;;24.03;13.83;;;;;;;14.79;79.67;98072.83;124505;1099;104236;-72
2023/03/11 07:39:55;;;;;;;20.53;10.97;;;;;;;14.96;80.09;98068.10;124480;1099;104172;-71
2023/03/11 07:42:26;;;;;;;22.17;13.07;;;;;;;15.02;79.49;98075.00;124504;1099;104319;-72
2023/03/11 07:44:58;;;;;;;23.60;12.87;;;;;;;15.10;79.42;98066.03;124494;1099;104252;-72
2023/03/11 07:47:29;;;;;;;20.07;12.33;;;;;;;15.18;78.95;98059.72;124486;1099;104271;-73
2023/03/11 07:50:01;;;;;;;22.77;12.03;;;;;;;15.30;78.87;98055.92;124093;1099;104290;-72
2023/03/11 07:52:33;;;;;;;25.17;12.60;;;;;;;15.43;78.18;98054.75;124628;1099;104201;-72
2023/03/11 07:55:05;;;;;;;22.03;11.67;;;;;;;15.51;78.62;98051.93;124561;1099;101964;-72
2023/03/11 07:57:37;;;;;;;22.47;11.57;;;;;;;15.59;78.08;98047.33;124576;1099;104265;-72
2023/03/11 08:00:11;;;;;;;20.67;12.27;;;;;;;15.60;78.51;98046.43;124521;1098;103934;-72
2023/03/11 08:02:45;;;;;;;18.53;11.23;;;;;;;15.61;77.66;98040.22;124546;1099;104207;-72
2023/03/11 08:05:19;;;;;;;21.70;11.30;;;;;;;15.72;78.28;98035.56;124489;1099;102026;-73
2023/03/11 08:07:51;;;;;;;22.63;11.67;;;;;;;15.93;78.24;98043.89;124550;1099;103642;-73
2023/03/11 08:10:22;;;;;;;20.87;11.53;;;;;;;16.09;77.37;98029.34;124600;1099;104277;-72
2023/03/11 08:12:54;;;;;;;18.43;9.60;;;;;;;16.23;76.88;98039.57;124517;1099;104211;-72
2023/03/11 08:15:25;;;;;;;20.03;9.40;;;;;;;16.38;76.38;98029.47;124567;1099;104294;-72
2023/03/11 08:17:57;;;;;;;20.67;9.90;;;;;;;16.54;76.43;98025.51;124592;1099;104235;-72
2023/03/11 08:20:28;;;;;;;20.43;10.30;;;;;;;16.80;77.00;98026.56;124525;1099;104163;-73
2023/03/11 08:22:59;;;;;;;21.43;9.70;;;;;;;17.05;76.72;98022.28;124577;1099;104233;-72
2023/03/11 08:25:31;;;;;;;17.80;8.90;;;;;;;17.17;74.30;98015.76;124543;1099;104233;-72
2023/03/11 08:28:02;;;;;;;17.30;8.20;;;;;;;17.33;74.88;98031.19;124561;1098;104275;-72
2023/03/11 08:30:33;;;;;;;20.97;8.10;;;;;;;17.41;75.29;98014.11;124501;1099;104159;-72
2023/03/11 08:33:05;;;;;;;21.60;8.57;;;;;;;17.47;73.59;98010.41;125819;1098;104338;-72
2023/03/11 08:35:36;;;;;;;17.43;8.40;;;;;;;17.45;73.34;98003.41;124521;1099;104166;-73
2023/03/11 08:38:08;;;;;;;16.73;8.03;;;;;;;17.36;72.70;98000.14;124522;1099;104380;-72
2023/03/11 08:40:39;;;;;;;18.30;8.30;;;;;;;17.34;73.07;98001.98;124561;1099;104251;-73
2023/03/11 08:43:14;;;;;;;16.83;8.10;;;;;;;17.26;72.98;97998.69;125843;1098;104178;-73
2023/03/11 08:45:46;;;;;;;17.63;8.00;;;;;;;17.22;73.00;98002.37;124554;1099;104264;-72
2023/03/11 08:48:17;;;;;;;19.70;7.90;;;;;;;17.26;72.65;97996.03;124563;1099;104194;-72
2023/03/11 08:50:48;;;;;;;17.57;7.50;;;;;;;17.26;72.61;98001.34;124562;1099;104141;-73
2023/03/11 08:53:19;;;;;;;17.07;7.50;;;;;;;17.23;72.41;97998.78;124601;1099;104235;-72
2023/03/11 08:55:51;;;;;;;17.37;8.37;;;;;;;17.22;71.82;97992.62;124498;1099;104184;-73
2023/03/11 08:58:23;;;;;;;14.10;6.90;;;;;;;17.23;72.09;97989.07;124546;1099;104233;-73
2023/03/11 09:00:54;;;;;;;16.30;8.40;;;;;;;17.23;72.13;97990.83;124581;1099;104201;-74
2023/03/11 09:03:25;;;;;;;15.63;7.17;;;;;;;17.28;72.13;97980.98;124563;1099;104217;-73
2023/03/11 09:06:00;;;;;;;16.23;6.80;;;;;;;17.29;71.77;97989.78;124366;1099;104217;-74
2023/03/11 09:08:32;;;;;;;15.30;6.60;;;;;;;17.30;71.00;97994.18;124144;1099;104297;-74
2023/03/11 09:11:04;;;;;;;14.40;6.73;;;;;;;17.34;71.28;97982.55;124575;1098;104197;-73
2023/03/11 09:13:35;;;;;;;14.47;6.73;;;;;;;17.37;71.00;97983.34;124524;1099;101897;-73
2023/03/11 09:16:08;;;;;;;13.30;5.87;;;;;;;17.40;70.83;97991.16;124487;1099;102805;-73
2023/03/11 09:18:40;;;;;;;14.53;6.43;;;;;;;17.47;70.76;97981.24;124553;1098;104178;-73
2023/03/11 09:21:12;;;;;;;17.30;6.33;;;;;;;17.45;70.18;97985.70;124486;1099;104283;-73
2023/03/11 09:23:43;;;;;;;13.90;6.30;;;;;;;17.41;70.06;97989.39;124553;1099;104245;-73
2023/03/11 09:26:15;;;;;;;12.20;6.30;;;;;;;17.41;70.36;97997.34;124511;1099;104388;-74
2023/03/11 09:28:47;;;;;;;15.53;6.20;;;;;;;17.40;69.77;97995.60;124531;1099;104175;-73
2023/03/11 09:31:19;;;;;;;14.87;6.10;;;;;;;17.32;69.47;97985.24;124515;1099;104198;-73
2023/03/11 09:33:54;;;;;;;14.07;6.03;;;;;;;17.24;69.17;97988.13;125275;1099;104235;-73
2023/03/11 09:36:25;;;;;;;11.77;5.13;;;;;;;17.18;69.05;97979.52;124528;1099;102551;-73
2023/03/11 09:38:57;;;;;;;11.63;5.17;;;;;;;17.09;68.94;97983.31;124516;1099;103645;-74
2023/03/11 09:41:41;;;;;;;12.03;5.33;;;;;;;17.03;69.11;97994.09;124451;1098;104248;-74
2023/03/11 09:44:20;;;;;;;12.30;5.83;;;;;;;16.99;68.49;97989.83;124516;1098;104236;-73
2023/03/11 09:47:24;;;;;;;14.67;5.53;;;;;;;17.02;68.48;97989.73;124545;1099;104232;-74
2023/03/11 09:50:11;;;;;;;14.47;5.67;;;;;;;17.07;68.82;97982.50;124335;1099;104245;-73
2023/03/11 09:52:48;;;;;;;13.17;5.60;;;;;;;17.09;68.56;97980.66;124547;1099;102118;-75
2023/03/11 09:55:42;;;;;;;11.57;5.50;;;;;;;17.15;68.51;97990.22;124455;1099;107967;-74
2023/03/11 09:58:14;;;;;;;;;;;;;;;17.11;69.49;97981.50;124590;1098;101991;-74
2023/03/11 10:00:47;;;;;;;11.70;5.87;;;;;;;17.12;69.29;97985.86;124543;1099;104264;-75
2023/03/11 10:03:30;;;;;;;10.20;5.50;;;;;;;17.11;69.11;97978.85;124549;1099;104207;-74
2023/03/11 10:06:12;;;;;;;13.45;6.30;;;;;;;17.07;69.63;97988.66;124533;1098;104235;-74
2023/03/11 10:08:49;;;;;;;15.53;6.00;;;;;;;17.03;69.31;97980.84;125821;1098;104054;-74
2023/03/11 10:11:36;;;;;;;15.50;6.50;;;;;;;17.01;69.31;97966.80;124532;1099;104198;-74
2023/03/11 10:14:30;;;;;;;13.07;6.13;;;;;;;16.96;69.53;97968.73;124409;1098;104246;-75
2023/03/11 10:17:13;;;;;;;13.03;5.70;;;;;;;16.84;69.35;97969.92;124783;1099;104195;-75
2023/03/11 10:19:48;;;;;;;11.47;6.10;;;;;;;16.71;69.46;97966.78;124601;1099;104243;-75
2023/03/11 10:22:27;;;;;;;16.10;6.20;;;;;;;16.57;69.02;97958.38;124133;1099;104128;-74
2023/03/11 10:25:09;;;;;;;14.17;6.23;;;;;;;16.45;69.01;97978.98;124528;1099;101817;-74
2023/03/11 10:27:46;;;;;;;12.50;6.55;;;;;;;16.32;69.60;97969.66;124577;1099;104359;-74
2023/03/11 10:30:24;;;;;;;13.67;6.67;;;;;;;16.17;69.97;97963.01;124560;1099;104332;-74
2023/03/11 10:33:00;;;;;;;14.07;6.10;;;;;;;16.04;70.19;97951.91;125810;1098;104194;-75
2023/03/11 10:35:39;;;;;;;10.97;5.40;;;;;;;15.86;69.76;97947.10;124518;1099;104249;-73
2023/03/11 10:38:16;;;;;;;11.10;5.50;;;;;;;15.75;69.94;97939.42;124456;1099;104259;-72
2023/03/11 10:40:49;;;;;;;11.70;5.67;;;;;;;15.71;70.71;97933.35;124548;1099;104270;-72
2023/03/11 10:43:27;;;;;;;10.90;5.50;;;;;;;15.66;70.72;97927.33;125881;1098;104220;-73
2023/03/11 10:45:58;;;;;;;12.23;5.60;;;;;;;15.61;71.05;97931.84;124572;1098;104203;-73
2023/03/11 10:48:29;;;;;;;11.53;5.57;;;;;;;15.61;70.47;97934.48;124512;1099;104249;-72
2023/03/11 10:51:07;;;;;;;9.83;5.57;;;;;;;15.51;71.16;97931.22;124573;1099;104341;-73
2023/03/11 10:53:47;;;;;;;9.17;5.30;;;;;;;15.41;70.75;97927.95;124532;1099;104264;-72
2023/03/11 10:56:32;;;;;;;10.50;5.70;;;;;;;15.35;70.82;97925.45;124506;1099;104238;-72
2023/03/11 10:59:06;;;;;;;14.07;6.13;;;;;;;15.33;71.55;97919.32;125872;1098;101928;-73
2023/03/11 11:01:36;;;;;;;;;;;;;;;15.26;72.10;97920.40;124570;1099;104338;-72
2023/03/11 11:04:28;;;;;;;10.80;5.77;;;;;;;15.25;72.11;97919.55;124504;1099;104188;-73
2023/03/11 11:07:19;;;;;;;12.23;6.17;;;;;;;15.31;71.83;97910.58;124513;1099;111975;-73
2023/03/11 11:10:18;;;;;;;12.53;6.10;;;;;;;15.37;71.77;97906.92;124506;1099;104301;-73
2023/03/11 11:12:58;;;;;;;13.43;6.57;;;;;;;15.49;72.73;97901.33;124533;1099;104287;-73
2023/03/11 11:15:32;;;;;;;14.50;6.50;;;;;;;15.60;72.82;97893.98;124468;1099;104341;-73
2023/03/11 11:18:06;;;;;;;14.77;6.30;;;;;;;15.69;72.72;97890.23;124560;1099;104319;-72
2023/03/11 11:20:40;;;;;;;10.90;5.80;;;;;;;15.71;73.39;97895.48;124553;1099;104246;-73
2023/03/11 11:23:27;;;;;;;10.95;5.97;;;;;;;15.61;73.61;97893.08;125923;1098;104185;-73
2023/03/11 11:26:03;;;;;;;13.27;5.93;;;;;;;15.44;73.33;97885.59;124192;1099;104230;-72
2023/03/11 11:28:36;;;;;;;14.73;6.97;;;;;;;15.34;73.48;97875.30;125817;1098;104166;-72
2023/03/11 11:31:19;;;;;;;10.97;5.70;;;;;;;15.30;74.03;97868.34;124523;1099;104178;-72
2023/03/11 11:33:53;;;;;;;12.60;6.17;;;;;;;15.33;73.31;97874.41;125878;1098;104235;-72
2023/03/11 11:36:29;;;;;;;13.57;6.27;;;;;;;15.40;73.77;97876.00;124501;1099;104169;-73
2023/03/11 11:39:03;;;;;;;15.33;6.40;;;;;;;15.48;74.21;97869.66;124162;1099;104359;-73